Time;durP1;ratioP1;P1;durP2;ratioP2;P2;SDS_P1;SDS_P2;PMS_P1;PMS_P2;Temp;Humidity;BMP_temperature;BMP_pressure;BME280_temperature;BME280_humidity;BME280_pressure;Samples;Min_cycle;Max_cycle;Signal;HPM_P1;HPM_P2
2022/10/31 00:02:04;;;;;;;27.58;15.90;;;15.10;99.90;;;;;;5076250;28;20182;-71
2022/10/31 00:04:30;;;;;;;22.17;14.52;;;15.10;99.90;;;;;;5072622;28;20179;-70
2022/10/31 00:06:56;;;;;;;25.08;15.35;;;15.10;99.90;;;;;;5076043;28;20198;-71
2022/10/31 00:09:22;;;;;;;23.17;14.00;;;15.10;99.90;;;;;;5055444;28;20210;-70
2022/10/31 00:11:47;;;;;;;28.92;14.70;;;15.00;99.90;;;;;;5055622;28;20631;-70
2022/10/31 00:14:13;;;;;;;28.13;15.40;;;15.00;99.90;;;;;;5078240;28;20172;-71
2022/10/31 00:16:40;;;;;;;26.83;17.25;;;15.00;99.90;;;;;;5078042;28;20183;-71
2022/10/31 00:19:07;;;;;;;29.40;18.00;;;15.10;99.90;;;;;;5076005;28;20207;-71
2022/10/31 00:21:32;;;;;;;23.98;15.13;;;15.00;99.90;;;;;;5054195;28;20714;-71
2022/10/31 00:23:59;;;;;;;22.10;13.40;;;15.00;99.90;;;;;;5079077;28;20234;-70
2022/10/31 00:26:30;;;;;;;24.00;14.52;;;15.10;99.90;;;;;;5077009;28;20215;-71
2022/10/31 00:28:57;;;;;;;23.55;14.60;;;15.00;99.90;;;;;;5073382;28;20187;-71
2022/10/31 00:31:22;;;;;;;23.00;15.15;;;15.00;99.90;;;;;;5078757;28;20158;-70
2022/10/31 00:33:48;;;;;;;25.25;14.60;;;15.00;99.90;;;;;;5076766;28;20218;-70
2022/10/31 00:36:17;;;;;;;23.48;14.38;;;15.00;99.90;;;;;;5044834;28;20258;-70
2022/10/31 00:38:43;;;;;;;26.23;13.95;;;15.00;99.90;;;;;;5071724;28;20649;-70
2022/10/31 00:41:10;;;;;;;20.75;14.18;;;14.90;99.90;;;;;;5079781;28;20324;-70
2022/10/31 00:43:36;;;;;;;20.38;14.45;;;14.90;99.90;;;;;;5075653;28;20648;-70
2022/10/31 00:46:02;;;;;;;25.95;14.65;;;14.80;99.90;;;;;;5073530;28;20206;-70
2022/10/31 00:48:28;;;;;;;26.25;14.32;;;14.80;99.90;;;;;;5060377;28;20202;-69
2022/10/31 00:50:53;;;;;;;22.15;14.90;;;14.70;99.90;;;;;;5076132;28;20303;-70
2022/10/31 00:53:19;;;;;;;22.23;13.75;;;14.70;99.90;;;;;;5075575;28;20688;-71
2022/10/31 00:55:45;;;;;;;20.15;14.57;;;14.70;99.90;;;;;;5054296;28;20177;-71
2022/10/31 00:58:10;;;;;;;22.33;14.63;;;14.70;99.90;;;;;;5080182;28;20229;-70
2022/10/31 01:00:36;;;;;;;28.77;14.57;;;14.80;99.90;;;;;;5074782;28;20210;-70
2022/10/31 01:03:02;;;;;;;21.80;14.88;;;14.80;99.90;;;;;;5073538;28;20211;-70
2022/10/31 01:05:27;;;;;;;20.60;13.95;;;14.80;99.90;;;;;;5074232;28;20255;-70
2022/10/31 01:07:53;;;;;;;23.05;13.60;;;14.80;99.90;;;;;;5074016;28;20182;-70
2022/10/31 01:10:18;;;;;;;22.90;13.93;;;14.70;99.90;;;;;;5079091;28;20241;-70
2022/10/31 01:12:46;;;;;;;18.92;13.65;;;14.70;99.90;;;;;;5053609;28;20222;-70
2022/10/31 01:15:14;;;;;;;22.67;13.43;;;14.70;99.90;;;;;;5080247;28;20203;-70
2022/10/31 01:17:40;;;;;;;21.10;13.00;;;14.70;99.90;;;;;;5053128;28;20207;-70
2022/10/31 01:20:07;;;;;;;25.33;13.88;;;14.60;99.90;;;;;;5072950;28;20199;-70
2022/10/31 01:22:34;;;;;;;26.33;13.68;;;14.60;99.90;;;;;;5056607;28;20174;-70
2022/10/31 01:24:59;;;;;;;21.58;14.15;;;14.60;99.90;;;;;;5077093;28;20791;-70
2022/10/31 01:27:25;;;;;;;21.52;14.15;;;14.60;99.90;;;;;;5074349;28;20305;-70
2022/10/31 01:29:51;;;;;;;21.75;13.43;;;14.50;99.90;;;;;;5071245;28;20211;-70
2022/10/31 01:32:16;;;;;;;21.42;13.65;;;14.60;99.90;;;;;;5080215;28;20218;-70
2022/10/31 01:34:42;;;;;;;23.67;13.55;;;14.60;99.90;;;;;;5075379;28;20224;-70
2022/10/31 01:37:07;;;;;;;25.65;14.25;;;14.60;99.90;;;;;;5071914;28;20207;-69
2022/10/31 01:39:33;;;;;;;18.23;13.27;;;14.60;99.90;;;;;;5073624;28;20212;-70
2022/10/31 01:41:58;;;;;;;22.38;13.85;;;14.50;99.90;;;;;;5076927;28;20577;-70
2022/10/31 01:44:24;;;;;;;23.38;12.90;;;14.50;99.90;;;;;;5074759;28;20218;-70
2022/10/31 01:47:00;;;;;;;22.60;14.60;;;14.50;99.90;;;;;;5071987;28;20171;-70
2022/10/31 01:49:47;;;;;;;22.15;12.98;;;14.50;99.90;;;;;;5076783;28;20300;-70
2022/10/31 01:52:26;;;;;;;22.92;12.85;;;14.50;99.90;;;;;;5075263;28;20299;-70
2022/10/31 01:54:59;;;;;;;24.33;14.00;;;14.50;99.90;;;;;;5071990;28;20198;-71
2022/10/31 01:57:26;;;;;;;21.58;14.52;;;14.50;99.90;;;;;;5073849;28;20217;-69
2022/10/31 01:59:55;;;;;;;21.63;13.50;;;14.50;99.90;;;;;;5080628;28;20221;-70
2022/10/31 02:02:21;;;;;;;24.50;13.57;;;14.40;99.90;;;;;;5077723;28;20219;-69
2022/10/31 02:04:47;;;;;;;28.63;13.93;;;14.40;99.90;;;;;;5059366;28;20584;-70
2022/10/31 02:07:42;;;;;;;17.80;12.10;;;14.40;99.90;;;;;;5082594;28;20229;-69
2022/10/31 02:10:08;;;;;;;21.13;13.30;;;14.40;99.90;;;;;;5078258;28;20259;-70
2022/10/31 02:12:35;;;;;;;25.83;13.88;;;14.40;99.90;;;;;;5077560;28;20242;-70
2022/10/31 02:15:02;;;;;;;23.88;13.02;;;14.40;99.90;;;;;;5084807;28;20213;-70
2022/10/31 02:17:29;;;;;;;19.05;12.77;;;14.40;99.90;;;;;;5082568;28;20252;-70
2022/10/31 02:20:21;;;;;;;22.95;13.13;;;14.40;99.90;;;;;;5078979;28;20194;-70
2022/10/31 02:22:58;;;;;;;22.08;12.63;;;14.40;99.90;;;;;;5062047;28;20179;-70
2022/10/31 02:25:40;;;;;;;19.20;13.43;;;14.30;99.90;;;;;;5079259;28;20209;-70
2022/10/31 02:28:34;;;;;;;21.70;13.40;;;14.40;99.90;;;;;;5078769;28;20214;-70
2022/10/31 02:31:32;;;;;;;16.40;11.98;;;14.30;99.90;;;;;;5078987;28;20271;-69
2022/10/31 02:34:22;;;;;;;20.35;13.18;;;14.30;99.90;;;;;;5080270;28;20252;-70
2022/10/31 02:37:11;;;;;;;22.70;12.55;;;14.30;99.90;;;;;;5076103;28;20206;-70
2022/10/31 02:40:04;;;;;;;24.27;12.48;;;14.30;99.90;;;;;;5078037;28;20233;-70
2022/10/31 02:43:06;;;;;;;22.67;12.63;;;14.20;99.90;;;;;;5062280;28;20238;-70
2022/10/31 02:45:47;;;;;;;23.42;13.45;;;14.30;99.90;;;;;;5071825;28;20270;-70
2022/10/31 02:48:18;;;;;;;20.98;12.45;;;14.30;99.90;;;;;;5079424;28;20216;-71
2022/10/31 02:50:51;;;;;;;24.05;13.55;;;14.30;99.90;;;;;;5078227;28;20206;-70
2022/10/31 02:53:16;;;;;;;20.17;12.15;;;14.30;99.90;;;;;;5081189;28;20539;-71
2022/10/31 02:55:46;;;;;;;23.42;13.27;;;14.20;99.90;;;;;;5077747;28;20179;-70
2022/10/31 02:58:17;;;;;;;18.17;12.10;;;14.20;99.90;;;;;;5085775;28;20218;-70
2022/10/31 03:00:45;;;;;;;28.98;13.13;;;14.10;99.90;;;;;;5077254;28;20307;-70
2022/10/31 03:03:39;;;;;;;19.83;11.90;;;14.20;99.90;;;;;;5078709;28;20210;-69
2022/10/31 03:06:24;;;;;;;23.58;12.95;;;14.10;99.90;;;;;;5077110;28;20285;-70
2022/10/31 03:09:07;;;;;;;25.58;11.82;;;14.10;99.90;;;;;;5083477;28;20700;-70
2022/10/31 03:11:41;;;;;;;21.52;11.55;;;14.10;99.90;;;;;;5070054;28;20218;-70
2022/10/31 03:14:11;;;;;;;16.75;12.13;;;14.10;99.90;;;;;;5087052;22;20225;-72
2022/10/31 03:16:37;;;;;;;19.58;11.95;;;14.10;99.90;;;;;;5065553;28;20661;-72
2022/10/31 03:19:09;;;;;;;19.45;11.73;;;14.10;99.90;;;;;;5063094;28;20273;-73
2022/10/31 03:21:45;;;;;;;18.48;11.90;;;14.10;99.90;;;;;;5062464;28;20203;-72
2022/10/31 03:24:13;;;;;;;22.10;12.48;;;14.00;99.90;;;;;;5066426;28;20211;-72
2022/10/31 03:26:44;;;;;;;22.05;12.27;;;14.00;99.90;;;;;;5066041;28;20206;-72
2022/10/31 03:29:13;;;;;;;21.80;12.13;;;14.00;99.90;;;;;;5064154;28;20530;-71
2022/10/31 03:31:48;;;;;;;19.73;11.93;;;14.10;99.90;;;;;;5066584;28;20175;-72
2022/10/31 03:34:17;;;;;;;25.00;12.55;;;14.00;99.90;;;;;;5068139;28;20206;-72
2022/10/31 03:36:46;;;;;;;19.40;11.48;;;14.00;99.90;;;;;;5051600;28;20633;-72
2022/10/31 03:39:15;;;;;;;17.75;11.45;;;14.00;99.90;;;;;;5063595;28;20206;-71
2022/10/31 03:41:48;;;;;;;21.45;12.13;;;14.00;99.90;;;;;;5070064;28;20211;-72
2022/10/31 03:44:20;;;;;;;20.95;11.63;;;14.00;99.90;;;;;;5066651;28;20183;-72
2022/10/31 03:46:46;;;;;;;17.60;11.68;;;14.00;99.90;;;;;;5044695;28;20254;-72
2022/10/31 03:49:12;;;;;;;20.38;10.52;;;14.00;99.90;;;;;;5061763;28;20279;-72
2022/10/31 03:51:48;;;;;;;22.45;11.70;;;14.00;99.90;;;;;;5063341;28;20210;-72
2022/10/31 03:54:32;;;;;;;18.95;11.13;;;14.00;99.90;;;;;;5061391;28;20569;-72
2022/10/31 03:57:18;;;;;;;21.10;11.00;;;13.90;99.90;;;;;;5045165;28;20249;-71
2022/10/31 04:00:01;;;;;;;23.20;11.18;;;13.90;99.90;;;;;;5047323;28;20199;-72
2022/10/31 04:02:32;;;;;;;21.80;11.52;;;13.90;99.90;;;;;;5063606;28;20215;-71
2022/10/31 04:04:59;;;;;;;20.77;11.80;;;13.90;99.90;;;;;;5058340;28;20253;-71
2022/10/31 04:07:29;;;;;;;18.35;11.23;;;13.90;99.90;;;;;;5061688;28;20638;-72
2022/10/31 04:09:57;;;;;;;23.52;12.02;;;13.90;99.90;;;;;;5042043;28;20227;-71
2022/10/31 04:12:25;;;;;;;18.83;11.18;;;13.90;99.90;;;;;;5062813;28;20231;-72
2022/10/31 04:14:52;;;;;;;17.38;11.25;;;13.80;99.90;;;;;;5045657;28;20211;-73
2022/10/31 04:17:21;;;;;;;23.17;11.43;;;13.90;99.90;;;;;;5062619;28;20222;-72
2022/10/31 04:19:46;;;;;;;15.65;11.25;;;13.90;99.90;;;;;;5048033;28;20513;-73
2022/10/31 04:22:12;;;;;;;18.30;11.60;;;13.90;99.90;;;;;;5059146;28;20222;-72
2022/10/31 04:24:40;;;;;;;22.77;12.10;;;13.80;99.90;;;;;;5062558;28;20221;-73
2022/10/31 04:27:05;;;;;;;22.27;11.85;;;13.90;99.90;;;;;;5059237;28;20212;-72
2022/10/31 04:29:31;;;;;;;23.48;11.65;;;13.90;99.90;;;;;;5061642;28;20214;-71
2022/10/31 04:31:57;;;;;;;16.70;11.45;;;13.80;99.90;;;;;;5058260;28;20175;-71
2022/10/31 04:34:22;;;;;;;18.98;11.38;;;13.80;99.90;;;;;;5061177;28;20183;-72
2022/10/31 04:36:48;;;;;;;17.60;11.27;;;13.90;99.90;;;;;;5060516;28;20554;-72
2022/10/31 04:39:13;;;;;;;21.63;11.02;;;13.90;99.90;;;;;;5058308;28;20227;-72
2022/10/31 04:41:39;;;;;;;17.58;11.90;;;13.90;99.90;;;;;;5062069;28;20317;-72
2022/10/31 04:44:04;;;;;;;22.52;12.10;;;13.80;99.90;;;;;;5058713;28;20199;-73
2022/10/31 04:46:30;;;;;;;20.40;11.02;;;13.80;99.90;;;;;;5044081;28;20248;-71
2022/10/31 04:48:56;;;;;;;28.73;11.27;;;13.80;99.90;;;;;;5047416;28;20209;-71
2022/10/31 04:51:22;;;;;;;20.13;12.20;;;13.80;99.90;;;;;;5045071;28;20211;-72
2022/10/31 04:53:47;;;;;;;23.15;11.60;;;13.80;99.90;;;;;;5060060;28;20763;-71
2022/10/31 04:56:13;;;;;;;18.70;10.50;;;13.80;99.90;;;;;;5040092;28;20221;-71
2022/10/31 04:58:38;;;;;;;17.98;11.88;;;13.70;99.90;;;;;;5062274;28;20185;-72
2022/10/31 05:01:04;;;;;;;21.52;11.25;;;13.70;99.90;;;;;;5057895;28;20256;-72
2022/10/31 05:03:30;;;;;;;19.20;11.10;;;13.70;99.90;;;;;;5062915;28;20589;-72
2022/10/31 05:05:55;;;;;;;20.42;11.38;;;13.70;99.90;;;;;;5058018;28;20211;-72
2022/10/31 05:08:21;;;;;;;15.95;10.57;;;13.70;99.90;;;;;;5060348;28;20207;-72
2022/10/31 05:10:46;;;;;;;18.27;11.88;;;13.70;99.90;;;;;;5060270;28;20175;-73
2022/10/31 05:13:12;;;;;;;17.23;10.77;;;13.60;99.90;;;;;;5057472;28;20227;-71
2022/10/31 05:15:37;;;;;;;23.80;12.25;;;13.70;99.90;;;;;;5064037;28;20297;-72
2022/10/31 05:18:03;;;;;;;18.90;11.20;;;13.70;99.90;;;;;;5061273;28;20203;-73
2022/10/31 05:20:30;;;;;;;20.35;11.18;;;13.70;99.90;;;;;;5063856;28;20226;-72
2022/10/31 05:22:57;;;;;;;19.20;11.27;;;13.70;99.90;;;;;;5058529;28;20714;-72
2022/10/31 05:25:26;;;;;;;19.55;11.68;;;13.70;99.90;;;;;;5044977;28;20182;-72
2022/10/31 05:27:52;;;;;;;20.60;11.90;;;13.70;99.90;;;;;;5059392;28;20215;-72
2022/10/31 05:30:21;;;;;;;17.95;11.57;;;13.70;99.90;;;;;;5050009;28;20213;-72
2022/10/31 05:32:48;;;;;;;18.90;11.60;;;13.70;99.90;;;;;;5053595;28;20215;-71
2022/10/31 05:35:20;;;;;;;20.83;11.27;;;13.70;99.90;;;;;;5043164;28;20590;-72
2022/10/31 05:37:46;;;;;;;22.58;11.43;;;13.70;99.90;;;;;;5059808;28;20182;-72
2022/10/31 05:40:13;;;;;;;23.60;11.77;;;13.70;99.90;;;;;;5060033;28;21181;-70
2022/10/31 05:42:40;;;;;;;21.40;11.52;;;13.70;99.90;;;;;;5061352;28;20207;-73
2022/10/31 05:45:10;;;;;;;21.95;12.43;;;13.70;99.90;;;;;;5058090;28;20269;-72
2022/10/31 05:47:35;;;;;;;22.70;12.48;;;13.70;99.90;;;;;;5060836;28;20692;-72
2022/10/31 05:50:01;;;;;;;24.88;12.20;;;13.70;99.90;;;;;;5057398;28;20163;-73
2022/10/31 05:52:27;;;;;;;24.67;12.57;;;13.60;99.90;;;;;;5061042;28;20573;-72
2022/10/31 05:54:52;;;;;;;21.08;12.10;;;13.70;99.90;;;;;;5058136;28;20199;-71
2022/10/31 05:57:18;;;;;;;19.48;12.13;;;13.70;99.90;;;;;;5057806;28;20287;-73
2022/10/31 05:59:43;;;;;;;26.58;13.02;;;13.80;99.90;;;;;;5060964;28;20614;-72
2022/10/31 06:02:09;;;;;;;20.48;12.40;;;13.70;99.90;;;;;;5060712;28;20515;-72
2022/10/31 06:04:34;;;;;;;20.88;11.63;;;13.80;99.90;;;;;;5062461;28;20217;-72
2022/10/31 06:07:00;;;;;;;21.85;12.27;;;13.80;99.90;;;;;;5065682;28;20213;-72
2022/10/31 06:09:25;;;;;;;20.73;12.13;;;13.80;99.90;;;;;;5065630;28;20278;-72
2022/10/31 06:11:51;;;;;;;20.42;12.20;;;13.90;99.90;;;;;;5060653;28;20238;-72
2022/10/31 06:14:16;;;;;;;21.23;12.07;;;13.90;99.90;;;;;;5064670;28;20292;-72
2022/10/31 06:16:42;;;;;;;21.90;13.25;;;13.90;99.90;;;;;;5041279;28;20171;-72
2022/10/31 06:19:07;;;;;;;21.40;11.90;;;14.00;99.90;;;;;;5065635;28;20213;-73
2022/10/31 06:21:33;;;;;;;24.27;12.35;;;14.10;99.90;;;;;;5061484;28;20205;-71
2022/10/31 06:23:58;;;;;;;23.65;11.80;;;14.10;99.90;;;;;;5065518;28;20298;-72
2022/10/31 06:26:24;;;;;;;20.42;12.02;;;14.20;99.90;;;;;;5051618;28;20276;-73
2022/10/31 06:28:49;;;;;;;19.00;11.43;;;14.30;99.90;;;;;;5061816;28;20293;-73
2022/10/31 06:31:15;;;;;;;21.75;11.73;;;14.40;99.90;;;;;;5060963;28;20194;-73
2022/10/31 06:33:42;;;;;;;19.45;11.95;;;15.00;99.90;;;;;;5043860;28;20210;-72
2022/10/31 06:36:08;;;;;;;17.92;12.38;;;15.60;99.90;;;;;;5064213;28;20265;-72
2022/10/31 06:38:33;;;;;;;22.50;11.90;;;16.20;99.90;;;;;;5061341;28;20689;-73
2022/10/31 06:41:03;;;;;;;18.58;10.85;;;16.60;99.90;;;;;;5064686;28;20190;-73
2022/10/31 06:43:29;;;;;;;19.50;11.23;;;17.00;99.90;;;;;;5051850;28;20195;-73
2022/10/31 06:45:55;;;;;;;18.40;12.00;;;16.90;99.90;;;;;;5063674;28;20211;-73
2022/10/31 06:48:20;;;;;;;16.65;10.70;;;17.50;99.90;;;;;;5065660;28;20195;-73
2022/10/31 06:50:46;;;;;;;20.50;10.57;;;17.40;99.90;;;;;;5069932;28;20203;-71
2022/10/31 06:53:13;;;;;;;16.50;10.25;;;17.20;99.90;;;;;;5049478;28;20203;-70
2022/10/31 06:55:40;;;;;;;19.52;10.57;;;16.70;99.90;;;;;;5067668;28;20713;-71
2022/10/31 06:58:05;;;;;;;17.88;9.52;;;17.20;99.90;;;;;;5069908;28;20233;-72
2022/10/31 07:00:32;;;;;;;20.88;10.95;;;17.90;99.90;;;;;;5070202;28;20206;-72
2022/10/31 07:03:03;;;;;;;15.73;10.07;;;18.60;99.90;;;;;;5048601;28;20208;-71
2022/10/31 07:05:29;;;;;;;20.33;10.80;;;18.90;99.90;;;;;;5053320;28;20215;-72
2022/10/31 07:07:57;;;;;;;18.65;11.23;;;19.00;99.90;;;;;;5070982;28;20254;-71
2022/10/31 07:10:25;;;;;;;19.38;11.23;;;19.40;99.90;;;;;;5056189;28;20186;-72
2022/10/31 07:12:58;;;;;;;18.83;11.52;;;19.80;99.90;;;;;;5045059;28;20219;-72
2022/10/31 07:15:28;;;;;;;22.50;10.05;;;20.30;99.90;;;;;;5069114;28;20203;-71
2022/10/31 07:17:58;;;;;;;15.80;10.55;;;20.60;99.90;;;;;;5069248;28;20286;-72
2022/10/31 07:20:24;;;;;;;18.63;10.15;;;20.70;99.90;;;;;;5067524;28;20206;-72
2022/10/31 07:22:49;;;;;;;21.33;11.00;;;20.90;99.90;;;;;;5065123;28;20217;-73
2022/10/31 07:25:15;;;;;;;19.40;10.85;;;21.20;99.90;;;;;;5067339;28;20227;-71
2022/10/31 07:27:42;;;;;;;22.33;12.00;;;21.60;99.90;;;;;;5066553;28;20934;-72
2022/10/31 07:30:09;;;;;;;14.20;10.27;;;21.80;99.90;;;;;;5046024;28;20215;-73
2022/10/31 07:32:46;;;;;;;18.00;10.75;;;21.90;99.90;;;;;;5049891;28;20218;-71
2022/10/31 07:35:17;;;;;;;18.70;11.43;;;21.90;99.90;;;;;;5069591;28;20241;-71
2022/10/31 07:37:43;;;;;;;24.45;12.75;;;22.00;99.90;;;;;;5064947;28;20233;-71
2022/10/31 07:40:09;;;;;;;21.08;11.77;;;21.50;99.90;;;;;;5066045;28;20212;-72
2022/10/31 07:42:39;;;;;;;18.90;11.45;;;20.90;99.90;;;;;;5051425;28;20203;-71
2022/10/31 07:45:07;;;;;;;22.67;12.68;;;21.00;99.90;;;;;;5065157;28;20268;-72
2022/10/31 07:47:51;;;;;;;18.20;12.35;;;20.90;99.90;;;;;;5063467;28;20310;-72
2022/10/31 07:50:19;;;;;;;23.15;12.63;;;20.50;99.90;;;;;;5069718;28;20199;-72
2022/10/31 07:52:44;;;;;;;23.02;12.20;;;19.80;99.90;;;;;;5065328;28;20206;-72
2022/10/31 07:55:11;;;;;;;18.42;13.18;;;19.30;99.90;;;;;;5064148;28;20203;-71
2022/10/31 07:57:36;;;;;;;24.85;14.20;;;19.00;99.90;;;;;;5066337;28;20203;-72
2022/10/31 08:00:08;;;;;;;23.27;14.52;;;18.80;99.90;;;;;;5060443;28;20700;-72
2022/10/31 08:02:33;;;;;;;22.65;15.02;;;18.50;99.90;;;;;;5062477;28;20210;-73
2022/10/31 08:04:59;;;;;;;24.90;13.80;;;18.20;99.90;;;;;;5064797;28;20180;-72
2022/10/31 08:07:26;;;;;;;25.88;15.05;;;17.90;99.90;;;;;;5062382;28;20207;-73
2022/10/31 08:09:52;;;;;;;26.55;14.95;;;17.80;99.90;;;;;;5063683;28;20290;-72
2022/10/31 08:12:18;;;;;;;28.77;15.63;;;17.70;99.90;;;;;;5065390;28;20788;-72
2022/10/31 08:14:44;;;;;;;22.73;14.98;;;17.60;99.90;;;;;;5062086;28;20263;-73
2022/10/31 08:17:10;;;;;;;26.77;15.55;;;17.40;99.90;;;;;;5049400;28;20257;-72
2022/10/31 08:19:35;;;;;;;23.83;15.10;;;17.30;99.90;;;;;;5048196;28;20174;-72
2022/10/31 08:22:01;;;;;;;23.80;15.45;;;17.40;99.90;;;;;;5061030;28;20571;-72
2022/10/31 08:24:26;;;;;;;23.58;15.75;;;17.20;99.90;;;;;;5064603;28;20250;-72
2022/10/31 08:26:52;;;;;;;28.05;15.32;;;17.00;99.90;;;;;;5063415;28;20224;-72
2022/10/31 08:29:18;;;;;;;26.65;15.32;;;17.00;99.90;;;;;;5063839;28;20240;-74
2022/10/31 08:31:43;;;;;;;28.42;15.95;;;16.90;99.90;;;;;;5064430;28;20186;-73
2022/10/31 08:34:09;;;;;;;26.13;16.45;;;17.00;99.90;;;;;;5063616;28;20202;-72
2022/10/31 08:36:34;;;;;;;23.92;16.33;;;16.90;99.90;;;;;;5044897;28;20221;-72
2022/10/31 08:39:00;;;;;;;30.08;17.20;;;16.90;99.90;;;;;;5059121;28;20758;-71
2022/10/31 08:41:26;;;;;;;30.77;16.55;;;17.00;99.90;;;;;;5067005;28;20215;-72
2022/10/31 08:43:51;;;;;;;26.25;16.65;;;17.20;99.90;;;;;;5049908;28;20191;-71
2022/10/31 08:46:17;;;;;;;24.15;16.58;;;17.60;99.90;;;;;;5047816;28;20207;-73
2022/10/31 08:48:43;;;;;;;32.65;16.45;;;17.90;99.90;;;;;;5055019;28;20297;-72
2022/10/31 08:51:10;;;;;;;29.63;16.70;;;18.10;99.90;;;;;;5066277;28;20708;-72
2022/10/31 08:53:36;;;;;;;33.72;18.67;;;18.00;99.90;;;;;;5052243;28;20222;-72
2022/10/31 08:56:01;;;;;;;24.05;15.50;;;18.10;99.90;;;;;;5071480;28;20175;-73
2022/10/31 08:58:27;;;;;;;33.85;16.60;;;17.70;99.90;;;;;;5065951;28;20188;-73
2022/10/31 09:00:54;;;;;;;29.90;17.80;;;17.90;99.90;;;;;;5068429;28;20217;-71
2022/10/31 09:03:26;;;;;;;25.88;15.52;;;18.20;99.90;;;;;;5067199;28;20238;-72
2022/10/31 09:05:56;;;;;;;32.33;17.63;;;18.30;99.90;;;;;;5059537;28;20206;-72
2022/10/31 09:08:22;;;;;;;28.98;17.15;;;18.10;99.90;;;;;;5065626;28;20675;-74
2022/10/31 09:10:48;;;;;;;27.60;18.02;;;18.00;99.90;;;;;;5069479;28;20167;-73
2022/10/31 09:13:16;;;;;;;30.48;18.15;;;18.00;99.90;;;;;;5044960;28;20260;-72
2022/10/31 09:15:43;;;;;;;33.15;18.83;;;18.10;99.90;;;;;;5069913;28;20321;-72
2022/10/31 09:18:10;;;;;;;30.50;17.27;;;18.40;99.90;;;;;;5096266;22;20308;-69
2022/10/31 09:20:38;;;;;;;29.55;16.73;;;18.50;99.90;;;;;;5082560;28;20217;-70
2022/10/31 09:23:23;;;;;;;28.98;18.23;;;18.30;99.90;;;;;;5098101;28;20197;-70
2022/10/31 09:25:51;;;;;;;33.55;18.05;;;18.20;99.90;;;;;;5096412;28;20244;-70
2022/10/31 09:28:19;;;;;;;34.67;19.00;;;18.20;99.90;;;;;;5079680;28;20206;-71
2022/10/31 09:30:47;;;;;;;29.98;17.75;;;18.30;99.90;;;;;;5098965;28;20205;-70
2022/10/31 09:33:13;;;;;;;30.77;17.63;;;18.40;99.90;;;;;;5064574;28;20242;-70
2022/10/31 09:35:39;;;;;;;25.27;16.67;;;18.30;99.90;;;;;;5095104;28;20209;-70
2022/10/31 09:38:11;;;;;;;31.33;18.73;;;18.40;99.90;;;;;;5098007;28;20231;-70
2022/10/31 09:40:41;;;;;;;34.95;19.98;;;18.40;99.90;;;;;;5091747;28;20174;-71
2022/10/31 09:43:11;;;;;;;38.00;18.77;;;18.40;99.90;;;;;;5091261;28;20206;-70
2022/10/31 09:46:02;;;;;;;28.45;18.85;;;18.50;99.90;;;;;;5098972;28;20205;-68
2022/10/31 09:48:39;;;;;;;29.85;18.55;;;18.50;99.90;;;;;;5095378;28;20264;-70
2022/10/31 09:51:09;;;;;;;31.58;18.88;;;18.50;99.90;;;;;;5091096;28;20692;-70
2022/10/31 09:53:50;;;;;;;35.95;18.50;;;18.50;99.90;;;;;;5093448;28;20222;-70
2022/10/31 09:56:19;;;;;;;31.67;19.60;;;18.80;99.90;;;;;;5093050;28;20207;-71
2022/10/31 09:58:57;;;;;;;34.92;19.65;;;18.90;99.90;;;;;;5078227;28;20200;-70
2022/10/31 10:01:51;;;;;;;30.33;19.13;;;19.00;99.90;;;;;;5077389;28;20668;-70
2022/10/31 10:04:54;;;;;;;28.63;18.90;;;19.20;99.90;;;;;;5097154;28;20202;-70
2022/10/31 10:07:52;;;;;;;29.80;18.58;;;19.40;99.90;;;;;;5089958;28;20202;-71
2022/10/31 10:10:32;;;;;;;32.90;20.60;;;19.50;99.90;;;;;;5091111;28;20206;-69
2022/10/31 10:13:22;;;;;;;41.33;21.33;;;19.80;99.90;;;;;;5099555;28;20221;-69
2022/10/31 10:15:55;;;;;;;37.33;20.02;;;19.50;99.90;;;;;;5088000;28;20321;-70
2022/10/31 10:18:46;;;;;;;27.17;19.35;;;19.70;99.90;;;;;;5094137;28;20280;-71
2022/10/31 10:21:19;;;;;;;28.65;19.63;;;19.80;99.90;;;;;;5100309;28;20691;-70
2022/10/31 10:24:11;;;;;;;32.67;20.92;;;19.50;99.90;;;;;;5095267;28;20216;-70
2022/10/31 10:26:40;;;;;;;35.17;18.45;;;19.60;99.90;;;;;;5103825;28;20225;-70
2022/10/31 10:29:40;;;;;;;29.42;19.95;;;19.70;99.90;;;;;;5099830;28;20181;-71
2022/10/31 10:32:14;;;;;;;31.00;18.35;;;19.90;99.90;;;;;;5094863;28;20181;-72
2022/10/31 10:35:01;;;;;;;36.85;20.90;;;20.00;99.90;;;;;;5090643;28;20230;-70
2022/10/31 10:37:32;;;;;;;34.45;20.63;;;20.10;99.90;;;;;;5103481;28;20200;-70
2022/10/31 10:40:16;;;;;;;34.25;19.95;;;20.00;99.90;;;;;;5096406;28;20706;-70
2022/10/31 10:48:36;;;;;;;34.42;20.90;;;20.10;99.90;;;;;;5097555;28;20236;-69
2022/10/31 10:51:06;;;;;;;33.45;20.65;;;20.00;99.90;;;;;;5093091;28;20218;-70
2022/10/31 10:54:02;;;;;;;34.63;20.83;;;19.90;99.90;;;;;;5101509;28;20224;-71
2022/10/31 10:56:34;;;;;;;33.72;20.58;;;20.00;99.90;;;;;;5098091;28;20316;-71
2022/10/31 10:58:59;;;;;;;29.80;20.35;;;20.00;99.90;;;;;;5077740;28;20182;-70
2022/10/31 11:01:25;;;;;;;34.08;21.25;;;20.10;99.90;;;;;;5101277;28;20719;-70
2022/10/31 11:03:51;;;;;;;30.90;20.02;;;20.20;99.90;;;;;;5085934;28;20297;-70
2022/10/31 11:06:24;;;;;;;35.38;21.48;;;20.20;99.90;;;;;;5093784;28;20754;-71
2022/10/31 11:08:50;;;;;;;37.30;22.63;;;20.10;99.90;;;;;;5098830;28;20239;-70
2022/10/31 11:11:30;;;;;;;36.00;21.88;;;20.10;99.90;;;;;;5098379;28;20222;-70
2022/10/31 11:14:16;;;;;;;33.17;20.55;;;20.10;99.90;;;;;;5097366;28;20197;-71
2022/10/31 11:16:45;;;;;;;36.00;22.13;;;20.20;99.90;;;;;;5099611;28;20666;-70
2022/10/31 11:19:25;;;;;;;33.28;20.25;;;20.30;99.90;;;;;;5087991;28;20258;-70
2022/10/31 11:21:50;;;;;;;34.70;20.92;;;20.40;99.90;;;;;;5111978;28;20222;-71
2022/10/31 11:24:22;;;;;;;33.63;22.77;;;20.40;99.90;;;;;;5098308;28;20196;-71
2022/10/31 11:26:49;;;;;;;36.50;23.83;;;20.50;99.90;;;;;;5101781;28;20316;-72
2022/10/31 11:29:24;;;;;;;36.70;20.73;;;20.20;99.90;;;;;;5100594;28;20210;-72
2022/10/31 11:31:52;;;;;;;36.22;23.40;;;20.20;99.90;;;;;;5093054;28;20161;-72
2022/10/31 11:34:27;;;;;;;34.60;22.95;;;20.20;99.90;;;;;;5090637;28;20203;-71
2022/10/31 11:36:54;;;;;;;44.53;24.60;;;20.30;99.90;;;;;;5098217;28;20624;-71
2022/10/31 11:39:23;;;;;;;35.63;23.90;;;20.30;99.90;;;;;;5095255;28;20195;-71
2022/10/31 11:41:51;;;;;;;37.38;23.42;;;20.30;99.90;;;;;;5073382;28;20213;-71
2022/10/31 11:44:21;;;;;;;33.85;21.60;;;20.20;99.90;;;;;;5096256;28;20203;-71
2022/10/31 11:46:51;;;;;;;40.45;23.33;;;20.20;99.90;;;;;;5100850;28;20193;-70
2022/10/31 11:49:38;;;;;;;38.45;23.30;;;20.10;99.90;;;;;;5078327;28;20251;-70
2022/10/31 11:52:14;;;;;;;29.63;21.92;;;20.00;99.90;;;;;;5094270;28;20209;-71
2022/10/31 11:54:48;;;;;;;37.10;22.63;;;20.00;99.90;;;;;;5098335;28;20292;-71
2022/10/31 11:57:26;;;;;;;34.97;21.52;;;20.00;99.90;;;;;;5078895;28;20275;-72
2022/10/31 11:59:54;;;;;;;37.05;22.48;;;19.90;99.90;;;;;;5094891;28;20209;-69
2022/10/31 12:02:20;;;;;;;39.15;21.88;;;20.00;99.90;;;;;;5098289;28;20210;-71
2022/10/31 12:05:21;;;;;;;37.47;22.77;;;20.00;99.90;;;;;;5099183;28;20198;-71
2022/10/31 12:07:47;;;;;;;33.83;20.88;;;20.00;99.90;;;;;;5073226;28;20264;-72
2022/10/31 12:10:13;;;;;;;35.90;21.33;;;20.00;99.90;;;;;;5077218;28;20302;-71
2022/10/31 12:13:02;;;;;;;33.05;20.23;;;19.80;99.90;;;;;;5100725;28;20220;-71
2022/10/31 12:15:33;;;;;;;33.60;22.42;;;19.80;99.90;;;;;;5094843;28;20757;-71
2022/10/31 12:18:26;;;;;;;37.50;20.92;;;19.70;99.90;;;;;;5077120;28;20229;-71
2022/10/31 12:21:17;;;;;;;38.47;22.60;;;19.70;99.90;;;;;;5099292;28;20241;-72
2022/10/31 12:23:53;;;;;;;35.88;22.27;;;19.80;99.90;;;;;;5084377;28;20678;-70
2022/10/31 12:26:44;;;;;;;36.72;22.65;;;19.60;99.90;;;;;;5096963;28;20206;-70
2022/10/31 12:29:54;;;;;;;32.38;21.10;;;19.50;99.90;;;;;;5097953;28;20218;-69
2022/10/31 12:32:30;;;;;;;32.83;20.90;;;19.40;99.90;;;;;;5086508;28;20274;-72
2022/10/31 12:35:15;;;;;;;33.38;21.73;;;19.50;99.90;;;;;;5073594;28;20174;-72
2022/10/31 12:37:52;;;;;;;32.10;21.23;;;19.40;99.90;;;;;;5080076;28;20445;-71
2022/10/31 12:40:50;;;;;;;33.50;21.25;;;19.40;99.90;;;;;;5092490;28;20234;-71
2022/10/31 12:43:34;;;;;;;32.17;19.63;;;19.40;99.90;;;;;;5090298;28;20226;-71
2022/10/31 12:46:02;;;;;;;31.25;19.33;;;19.50;99.90;;;;;;5078086;28;20261;-71
2022/10/31 12:48:39;;;;;;;37.15;22.02;;;19.50;99.90;;;;;;5100444;28;20294;-71
2022/10/31 12:51:10;;;;;;;41.47;22.20;;;19.60;99.90;;;;;;5092238;28;20284;-71
2022/10/31 12:53:55;;;;;;;35.80;20.50;;;19.60;99.90;;;;;;5076305;28;20319;-71